Time;durP1;ratioP1;P1;durP2;ratioP2;P2;SDS_P1;SDS_P2;PMS_P1;PMS_P2;Temp;Humidity;BMP_temperature;BMP_pressure;BME280_temperature;BME280_humidity;BME280_pressure;Samples;Min_cycle;Max_cycle;Signal;HPM_P1;HPM_P2
2023/12/10 00:02:17;;;;;;;18.38;5.03;;;9.00;99.90;;;;;;5012765;28;20034;-77
2023/12/10 00:04:43;;;;;;;18.52;3.90;;;8.80;99.90;;;;;;4996355;28;20572;-77
2023/12/10 00:07:09;;;;;;;27.67;5.32;;;8.90;99.90;;;;;;4995497;28;20424;-77
2023/12/10 00:09:35;;;;;;;24.65;6.28;;;8.80;99.90;;;;;;5011798;28;20045;-78
2023/12/10 00:12:01;;;;;;;33.78;4.85;;;8.90;99.90;;;;;;5013237;28;20397;-78
2023/12/10 00:14:26;;;;;;;23.90;6.10;;;8.80;99.90;;;;;;5012287;28;20124;-77
2023/12/10 00:16:53;;;;;;;25.35;5.05;;;8.90;99.90;;;;;;5012672;28;20046;-77
2023/12/10 00:19:18;;;;;;;26.75;5.40;;;8.90;99.90;;;;;;5011988;28;20049;-77
2023/12/10 00:21:44;;;;;;;22.25;4.13;;;8.80;99.90;;;;;;5011887;28;20749;-77
2023/12/10 00:24:10;;;;;;;16.50;4.10;;;8.80;99.90;;;;;;5011774;28;20049;-77
2023/12/10 00:26:35;;;;;;;28.33;4.90;;;8.80;99.90;;;;;;4995413;28;20030;-77
2023/12/10 00:29:01;;;;;;;29.05;5.80;;;8.90;99.90;;;;;;5012415;28;20092;-77
2023/12/10 00:31:27;;;;;;;30.17;4.57;;;8.80;99.90;;;;;;5012207;28;20178;-77
2023/12/10 00:33:52;;;;;;;25.92;5.40;;;8.80;99.90;;;;;;5011773;28;20644;-77
2023/12/10 00:36:18;;;;;;;27.52;5.72;;;8.80;99.90;;;;;;5011645;28;20064;-77
2023/12/10 00:38:45;;;;;;;30.63;7.07;;;8.80;99.90;;;;;;5011622;28;20504;-77
2023/12/10 00:41:11;;;;;;;27.15;4.57;;;8.90;99.90;;;;;;5012178;28;20120;-77
2023/12/10 00:43:40;;;;;;;27.40;4.70;;;8.80;99.90;;;;;;5012335;28;20451;-77
2023/12/10 00:46:06;;;;;;;28.83;6.15;;;8.80;99.90;;;;;;5011115;28;20038;-77
2023/12/10 00:48:33;;;;;;;17.02;5.25;;;8.90;99.90;;;;;;5011251;28;20049;-77
2023/12/10 00:50:59;;;;;;;26.40;6.53;;;8.90;99.90;;;;;;5011772;28;20670;-77
2023/12/10 00:53:25;;;;;;;23.85;5.03;;;8.90;99.90;;;;;;5011703;28;20117;-77
2023/12/10 00:55:51;;;;;;;24.13;5.05;;;8.90;99.90;;;;;;4995065;28;20042;-78
2023/12/10 00:58:17;;;;;;;18.15;5.57;;;9.00;99.90;;;;;;5011623;28;20033;-77
2023/12/10 01:00:42;;;;;;;30.70;6.25;;;9.00;99.90;;;;;;5010465;28;20576;-78
2023/12/10 01:03:08;;;;;;;25.55;5.25;;;9.00;99.90;;;;;;5010433;28;20038;-78
2023/12/10 01:05:34;;;;;;;26.85;4.88;;;9.00;99.90;;;;;;4994733;28;20524;-77
2023/12/10 01:08:00;;;;;;;21.73;4.82;;;8.80;99.90;;;;;;5010866;28;20041;-78
2023/12/10 01:10:26;;;;;;;24.98;5.30;;;8.90;99.90;;;;;;5010744;28;20030;-78
2023/12/10 01:12:52;;;;;;;24.02;6.22;;;8.90;99.90;;;;;;5010635;28;20045;-77
2023/12/10 01:15:29;;;;;;;27.63;4.45;;;8.90;99.90;;;;;;5010667;28;20053;-77
2023/12/10 01:18:01;;;;;;;25.50;4.10;;;8.80;99.90;;;;;;5010852;28;20053;-78
2023/12/10 01:20:31;;;;;;;22.25;5.45;;;8.80;99.90;;;;;;4994225;28;20038;-78
2023/12/10 01:22:57;;;;;;;20.35;3.78;;;8.80;99.90;;;;;;5010860;28;20046;-78
2023/12/10 01:25:26;;;;;;;16.55;3.85;;;8.80;99.90;;;;;;5010618;28;20045;-77
2023/12/10 01:27:52;;;;;;;16.70;3.60;;;8.70;99.90;;;;;;5010897;28;20073;-77
2023/12/10 01:30:23;;;;;;;19.23;4.10;;;8.70;99.90;;;;;;5010525;28;20045;-77
2023/12/10 01:32:51;;;;;;;23.25;5.20;;;8.70;99.90;;;;;;4994144;28;20045;-77
2023/12/10 01:35:17;;;;;;;22.45;4.88;;;8.60;99.90;;;;;;5010701;28;20096;-77
2023/12/10 01:37:42;;;;;;;18.67;4.57;;;8.60;99.90;;;;;;5010478;28;20042;-78
2023/12/10 01:40:08;;;;;;;16.98;3.63;;;8.60;99.90;;;;;;5010086;28;20073;-78
2023/12/10 01:42:35;;;;;;;24.10;4.00;;;8.60;99.90;;;;;;5010289;28;20042;-77
2023/12/10 01:45:03;;;;;;;19.70;4.00;;;8.60;99.90;;;;;;4994330;28;20042;-77
2023/12/10 01:47:32;;;;;;;17.75;4.35;;;8.70;99.90;;;;;;5010187;28;20045;-77
2023/12/10 01:49:58;;;;;;;19.05;3.30;;;8.50;99.90;;;;;;5010506;28;20124;-77
2023/12/10 01:52:24;;;;;;;15.57;3.95;;;8.60;99.90;;;;;;5012008;28;20706;-77
2023/12/10 01:54:49;;;;;;;22.13;5.95;;;8.50;99.90;;;;;;5014416;28;20048;-77
2023/12/10 01:57:16;;;;;;;18.40;3.60;;;8.50;99.90;;;;;;5014581;28;20047;-78
2023/12/10 01:59:42;;;;;;;23.77;4.88;;;8.60;99.90;;;;;;5014298;28;20045;-77
2023/12/10 02:02:07;;;;;;;24.88;4.65;;;8.50;99.90;;;;;;5013849;28;20042;-78
2023/12/10 02:04:33;;;;;;;16.27;3.50;;;8.60;99.90;;;;;;4997676;28;20061;-78
2023/12/10 02:06:59;;;;;;;20.73;4.18;;;8.60;99.90;;;;;;5013542;28;20038;-78
2023/12/10 02:09:26;;;;;;;25.00;4.22;;;8.60;99.90;;;;;;5013754;28;20042;-77
2023/12/10 02:11:53;;;;;;;21.67;5.10;;;8.60;99.90;;;;;;5013798;28;20041;-78
2023/12/10 02:14:18;;;;;;;20.10;4.57;;;8.50;99.90;;;;;;4997604;28;20049;-78
2023/12/10 02:16:44;;;;;;;26.75;4.00;;;8.60;99.90;;;;;;5013432;28;20045;-78
2023/12/10 02:19:10;;;;;;;18.77;3.80;;;8.60;99.90;;;;;;5014778;28;20133;-78
2023/12/10 02:21:37;;;;;;;26.80;3.80;;;8.60;99.90;;;;;;5013524;28;20049;-78
2023/12/10 02:24:11;;;;;;;22.48;5.22;;;8.60;99.90;;;;;;5013878;28;20045;-78
2023/12/10 02:26:37;;;;;;;18.75;3.58;;;8.60;99.90;;;;;;5013605;28;20052;-78
2023/12/10 02:29:06;;;;;;;21.88;4.38;;;8.60;99.90;;;;;;5013201;28;20120;-78
2023/12/10 02:31:32;;;;;;;17.27;5.18;;;8.50;99.90;;;;;;5013422;28;20555;-78
2023/12/10 02:33:57;;;;;;;17.13;3.78;;;8.50;99.90;;;;;;4997235;28;20041;-78
2023/12/10 02:36:23;;;;;;;19.83;3.90;;;8.40;99.90;;;;;;5013268;28;20069;-78
2023/12/10 02:38:49;;;;;;;24.95;5.80;;;8.50;99.90;;;;;;4996973;28;20049;-78
2023/12/10 02:41:15;;;;;;;22.75;4.68;;;8.60;99.90;;;;;;4997008;28;20421;-78
2023/12/10 02:43:41;;;;;;;25.00;5.03;;;8.40;99.90;;;;;;5013258;28;20046;-78
2023/12/10 02:46:07;;;;;;;23.23;4.07;;;8.60;99.90;;;;;;5012987;28;20034;-78
2023/12/10 02:48:33;;;;;;;18.60;3.42;;;8.50;99.90;;;;;;5013232;28;20038;-78
2023/12/10 02:50:58;;;;;;;16.80;4.68;;;8.50;99.90;;;;;;5013495;28;20042;-78
2023/12/10 02:53:24;;;;;;;25.75;4.63;;;8.50;99.90;;;;;;5013114;28;20045;-78
2023/12/10 02:55:51;;;;;;;17.50;3.80;;;8.50;99.90;;;;;;5012926;28;20459;-78
2023/12/10 02:58:17;;;;;;;19.20;4.38;;;8.50;99.90;;;;;;5012894;28;20038;-78
2023/12/10 03:00:43;;;;;;;12.23;4.00;;;8.50;99.90;;;;;;5012027;28;20512;-78
2023/12/10 03:03:09;;;;;;;22.98;3.70;;;8.50;99.90;;;;;;5011738;28;20041;-77
2023/12/10 03:05:35;;;;;;;20.40;4.95;;;8.50;99.90;;;;;;4994974;28;20038;-77
2023/12/10 03:08:00;;;;;;;20.58;3.33;;;8.50;99.90;;;;;;5012170;28;20121;-78
2023/12/10 03:10:26;;;;;;;17.25;4.40;;;8.50;99.90;;;;;;5012936;28;20037;-78
2023/12/10 03:12:51;;;;;;;27.95;4.10;;;8.60;99.90;;;;;;5012909;28;20041;-78
2023/12/10 03:15:17;;;;;;;16.90;3.50;;;8.50;99.90;;;;;;5012889;28;20045;-78
2023/12/10 03:17:43;;;;;;;17.70;3.95;;;8.60;99.90;;;;;;5012483;28;20046;-78
2023/12/10 03:20:09;;;;;;;17.67;3.58;;;8.50;99.90;;;;;;5012747;28;20048;-78
2023/12/10 03:22:35;;;;;;;18.60;3.67;;;8.50;99.90;;;;;;5012670;28;20132;-78
2023/12/10 03:25:01;;;;;;;16.65;3.28;;;8.50;99.90;;;;;;5012564;28;20159;-78
2023/12/10 03:27:26;;;;;;;20.73;3.92;;;8.50;99.90;;;;;;5012198;28;20033;-78
2023/12/10 03:29:52;;;;;;;16.40;2.80;;;8.60;99.90;;;;;;5013985;28;20117;-78
2023/12/10 03:32:18;;;;;;;21.08;4.82;;;8.50;99.90;;;;;;4996161;28;20049;-78
2023/12/10 03:34:43;;;;;;;23.00;5.20;;;8.60;99.90;;;;;;5013759;28;20041;-78
2023/12/10 03:37:09;;;;;;;19.95;4.75;;;8.60;99.90;;;;;;5012265;28;20073;-78
2023/12/10 03:39:35;;;;;;;22.65;3.95;;;8.60;99.90;;;;;;5012248;28;20048;-78
2023/12/10 03:42:00;;;;;;;14.90;2.75;;;8.60;99.90;;;;;;5012180;28;20532;-78
2023/12/10 03:44:26;;;;;;;14.93;3.70;;;8.40;99.90;;;;;;5012393;28;20405;-78
2023/12/10 03:46:51;;;;;;;17.15;4.30;;;8.50;99.90;;;;;;5011947;28;20485;-78
2023/12/10 03:49:17;;;;;;;15.73;3.25;;;8.60;99.90;;;;;;5012126;28;20109;-78
2023/12/10 03:51:43;;;;;;;17.38;3.50;;;8.60;99.90;;;;;;5013372;28;20467;-78
2023/12/10 03:54:08;;;;;;;18.45;5.57;;;8.50;99.90;;;;;;4995777;28;20048;-78
2023/12/10 03:56:34;;;;;;;16.10;2.38;;;8.50;99.90;;;;;;5012817;28;20046;-78
2023/12/10 03:59:00;;;;;;;12.23;2.80;;;8.40;99.90;;;;;;5011477;28;20042;-78
2023/12/10 04:01:26;;;;;;;10.43;2.88;;;8.50;99.90;;;;;;5011767;28;20045;-78
2023/12/10 04:03:51;;;;;;;15.02;2.67;;;8.60;99.90;;;;;;5012019;28;20046;-78
2023/12/10 04:06:17;;;;;;;12.93;2.67;;;8.60;99.90;;;;;;4995108;28;20034;-78
2023/12/10 04:08:43;;;;;;;11.30;2.17;;;8.50;99.90;;;;;;4995447;28;20076;-78
2023/12/10 04:11:09;;;;;;;16.55;3.75;;;8.60;99.90;;;;;;5011871;28;20524;-78
2023/12/10 04:13:35;;;;;;;14.73;2.22;;;8.50;99.90;;;;;;5011880;28;20034;-78
2023/12/10 04:16:01;;;;;;;10.90;2.85;;;8.50;99.90;;;;;;5010988;28;20038;-78
2023/12/10 04:18:29;;;;;;;9.13;3.03;;;8.50;99.90;;;;;;5011463;28;20113;-78
2023/12/10 04:20:55;;;;;;;7.25;1.80;;;8.70;99.90;;;;;;5011512;28;20417;-78
2023/12/10 04:23:21;;;;;;;11.98;2.40;;;8.50;99.90;;;;;;5011680;28;20046;-78
2023/12/10 04:25:46;;;;;;;4.95;1.55;;;8.60;99.90;;;;;;4994890;28;20037;-78
2023/12/10 04:28:12;;;;;;;6.15;1.73;;;8.50;99.90;;;;;;5011431;28;20481;-78
2023/12/10 04:30:38;;;;;;;6.97;1.58;;;8.60;99.90;;;;;;5011651;28;20497;-78
2023/12/10 04:33:04;;;;;;;10.60;1.90;;;8.50;99.90;;;;;;4995279;28;20121;-78
2023/12/10 04:35:30;;;;;;;10.75;1.90;;;8.50;99.90;;;;;;4995268;28;20042;-79
2023/12/10 04:37:56;;;;;;;3.95;0.90;;;8.60;99.90;;;;;;5011298;28;20048;-78
2023/12/10 04:40:22;;;;;;;9.00;1.38;;;8.50;99.90;;;;;;5010946;28;20041;-78
2023/12/10 04:42:48;;;;;;;7.43;1.80;;;8.50;99.90;;;;;;4994870;28;20481;-79
2023/12/10 04:45:14;;;;;;;7.50;1.63;;;8.70;99.90;;;;;;5011180;28;20049;-78
2023/12/10 04:47:40;;;;;;;11.05;1.60;;;8.60;99.90;;;;;;5011043;28;20041;-78
2023/12/10 04:50:06;;;;;;;6.03;2.03;;;8.70;99.90;;;;;;5011263;28;20633;-78
2023/12/10 04:52:35;;;;;;;6.07;1.45;;;8.60;99.90;;;;;;5011448;28;20038;-79
2023/12/10 04:55:00;;;;;;;9.13;1.40;;;8.70;99.90;;;;;;5011176;28;20042;-79
2023/12/10 04:57:26;;;;;;;4.95;1.23;;;8.70;99.90;;;;;;4994471;28;20037;-78
2023/12/10 04:59:52;;;;;;;6.78;1.52;;;8.80;99.90;;;;;;5011387;28;20045;-79
2023/12/10 05:02:17;;;;;;;5.38;1.45;;;8.80;99.90;;;;;;4994565;28;20034;-79
2023/12/10 05:04:44;;;;;;;6.18;1.42;;;8.80;99.90;;;;;;5012024;28;20049;-78
2023/12/10 05:07:09;;;;;;;5.50;1.27;;;8.70;99.90;;;;;;5011457;28;20038;-79
2023/12/10 05:09:35;;;;;;;9.25;1.55;;;8.70;99.90;;;;;;4994767;28;20030;-79
2023/12/10 05:12:01;;;;;;;8.68;1.73;;;8.80;99.90;;;;;;5011071;28;20046;-79
2023/12/10 05:14:26;;;;;;;7.85;1.52;;;9.00;99.90;;;;;;5011338;28;20394;-78
2023/12/10 05:16:52;;;;;;;9.48;2.10;;;9.00;99.90;;;;;;5011555;28;20168;-78
2023/12/10 05:19:18;;;;;;;6.07;1.35;;;9.00;99.90;;;;;;5011359;28;20076;-79
2023/12/10 05:21:43;;;;;;;8.85;1.70;;;8.90;99.90;;;;;;4994585;28;20034;-79
2023/12/10 05:24:09;;;;;;;6.95;1.90;;;9.00;99.90;;;;;;5010906;28;20064;-79
2023/12/10 05:26:35;;;;;;;10.77;1.98;;;8.90;99.90;;;;;;4969172;28;20045;-79
2023/12/10 05:29:01;;;;;;;6.25;1.63;;;9.00;99.90;;;;;;4975633;28;20041;-78
2023/12/10 05:31:26;;;;;;;10.65;2.05;;;9.10;99.90;;;;;;4975871;28;20041;-78
2023/12/10 05:33:52;;;;;;;13.50;2.00;;;9.20;99.90;;;;;;4959464;28;20185;-78
2023/12/10 05:36:18;;;;;;;14.02;2.90;;;9.10;99.90;;;;;;4997196;28;20093;-78
2023/12/10 05:38:43;;;;;;;9.50;2.42;;;9.20;99.90;;;;;;5003073;28;20495;-78
2023/12/10 05:41:09;;;;;;;15.20;2.42;;;9.10;99.90;;;;;;4989110;28;20038;-79
2023/12/10 05:43:35;;;;;;;13.40;3.00;;;9.20;99.90;;;;;;5014555;28;20060;-80
2023/12/10 05:46:01;;;;;;;11.43;2.10;;;9.10;99.90;;;;;;5014340;28;20038;-79
2023/12/10 05:48:29;;;;;;;18.63;3.53;;;9.20;99.90;;;;;;5012487;28;20040;-79
2023/12/10 05:50:54;;;;;;;5.82;1.65;;;9.30;99.90;;;;;;5003725;28;20039;-79
2023/12/10 05:53:20;;;;;;;8.48;1.60;;;9.20;99.90;;;;;;5014216;28;20049;-78
2023/12/10 05:55:46;;;;;;;8.82;1.65;;;9.20;99.90;;;;;;5014286;28;20041;-79
2023/12/10 05:58:16;;;;;;;5.18;1.50;;;9.40;99.90;;;;;;5014357;28;20041;-79
2023/12/10 06:00:42;;;;;;;2.25;0.90;;;9.40;99.90;;;;;;5015223;28;20042;-79
2023/12/10 06:03:07;;;;;;;6.20;1.38;;;9.30;99.90;;;;;;4998245;28;20520;-78
2023/12/10 06:05:33;;;;;;;12.90;1.90;;;9.20;99.90;;;;;;5014268;28;20034;-79
2023/12/10 06:07:58;;;;;;;6.25;1.60;;;9.20;99.90;;;;;;4997729;28;20045;-78
2023/12/10 06:10:24;;;;;;;8.70;2.45;;;9.30;99.90;;;;;;4988226;28;20045;-79
2023/12/10 06:12:50;;;;;;;11.02;2.85;;;9.30;99.90;;;;;;5010880;28;20042;-78
2023/12/10 06:15:16;;;;;;;9.23;2.15;;;9.30;99.90;;;;;;4997726;28;20042;-78
2023/12/10 06:17:41;;;;;;;5.78;1.30;;;9.20;99.90;;;;;;5013763;28;20520;-79
2023/12/10 06:20:08;;;;;;;4.78;1.38;;;9.30;99.90;;;;;;5013516;28;20416;-78
2023/12/10 06:22:33;;;;;;;12.25;2.50;;;9.30;99.90;;;;;;5013531;28;20038;-78
2023/12/10 06:24:59;;;;;;;7.47;1.58;;;9.20;99.90;;;;;;5015088;28;20437;-78
2023/12/10 06:27:25;;;;;;;8.65;1.75;;;9.20;99.90;;;;;;5013722;28;20510;-78
2023/12/10 06:29:51;;;;;;;5.30;1.48;;;9.40;99.90;;;;;;5013587;28;20049;-78
2023/12/10 06:32:16;;;;;;;7.15;1.73;;;9.20;99.90;;;;;;5013743;28;20041;-78
2023/12/10 06:34:42;;;;;;;11.48;2.78;;;9.20;99.90;;;;;;5013271;28;20037;-78
2023/12/10 06:37:08;;;;;;;11.68;2.10;;;9.30;99.90;;;;;;5013062;28;20042;-79
2023/12/10 06:39:34;;;;;;;7.95;1.65;;;9.20;99.90;;;;;;5012941;28;20042;-79
2023/12/10 06:41:59;;;;;;;10.45;2.55;;;9.30;99.90;;;;;;5013226;28;20513;-78
2023/12/10 06:44:25;;;;;;;10.27;1.75;;;9.30;99.90;;;;;;5007448;28;20041;-78
2023/12/10 06:46:51;;;;;;;12.38;2.53;;;9.30;99.90;;;;;;5009811;28;20080;-78
2023/12/10 06:49:17;;;;;;;12.60;2.10;;;9.40;99.90;;;;;;5013151;28;20048;-78
2023/12/10 06:51:43;;;;;;;19.42;4.70;;;9.40;99.90;;;;;;5013073;28;20561;-78
2023/12/10 06:54:10;;;;;;;11.95;2.70;;;9.40;99.90;;;;;;4996990;28;20188;-79
2023/12/10 06:56:39;;;;;;;10.70;1.98;;;9.40;99.90;;;;;;5012793;28;20045;-78
2023/12/10 06:59:06;;;;;;;12.55;2.17;;;9.40;99.90;;;;;;5012940;28;20119;-78
2023/12/10 07:01:34;;;;;;;14.73;3.42;;;9.40;99.90;;;;;;5011393;28;20050;-79
2023/12/10 07:04:00;;;;;;;18.95;3.88;;;9.30;99.90;;;;;;5002665;28;20042;-78
2023/12/10 07:06:25;;;;;;;11.20;2.90;;;9.40;99.90;;;;;;5012364;28;20053;-78
2023/12/10 07:08:51;;;;;;;13.45;3.38;;;9.40;99.90;;;;;;4996207;28;20038;-78
2023/12/10 07:11:17;;;;;;;16.63;3.78;;;9.40;99.90;;;;;;5012656;28;20037;-78
2023/12/10 07:13:42;;;;;;;12.82;2.50;;;9.30;99.90;;;;;;5013093;28;20401;-79
2023/12/10 07:16:08;;;;;;;14.45;2.38;;;9.40;99.90;;;;;;5012672;28;20124;-78
2023/12/10 07:18:34;;;;;;;10.98;2.22;;;9.30;99.90;;;;;;5013600;28;20056;-78
2023/12/10 07:20:59;;;;;;;10.88;2.40;;;9.40;99.90;;;;;;5013765;28;20037;-78
2023/12/10 07:23:25;;;;;;;11.85;2.78;;;9.40;99.90;;;;;;5012476;28;20486;-78
2023/12/10 07:25:50;;;;;;;4.05;1.70;;;9.40;99.90;;;;;;5012399;28;20513;-79
2023/12/10 07:28:16;;;;;;;8.35;1.75;;;9.40;99.90;;;;;;5012134;28;20088;-78
2023/12/10 07:30:42;;;;;;;8.70;1.92;;;9.40;99.90;;;;;;5012243;28;20033;-78
2023/12/10 07:33:08;;;;;;;12.38;2.17;;;9.50;99.90;;;;;;5012607;28;20061;-78
2023/12/10 07:35:33;;;;;;;8.15;1.40;;;9.50;99.90;;;;;;5012010;28;20040;-78
2023/12/10 07:37:59;;;;;;;15.45;2.13;;;9.40;99.90;;;;;;5012051;28;20038;-79
2023/12/10 07:40:24;;;;;;;8.07;2.65;;;9.50;99.90;;;;;;5012358;28;20042;-77
2023/12/10 07:42:51;;;;;;;8.35;1.92;;;9.50;99.90;;;;;;5012827;28;20371;-77
2023/12/10 07:45:16;;;;;;;6.28;1.20;;;9.50;99.90;;;;;;4996364;28;20489;-77
2023/12/10 07:47:42;;;;;;;8.45;1.55;;;9.60;99.90;;;;;;5012272;28;20057;-77
2023/12/10 07:50:08;;;;;;;7.60;1.33;;;9.50;99.90;;;;;;5011000;28;20125;-77
2023/12/10 07:52:34;;;;;;;3.55;1.35;;;9.50;99.90;;;;;;5011870;28;20034;-77
2023/12/10 07:54:59;;;;;;;7.63;1.42;;;9.60;99.90;;;;;;5012433;28;20079;-77
2023/12/10 07:57:25;;;;;;;3.42;1.35;;;9.60;99.90;;;;;;5012281;28;20045;-78
2023/12/10 07:59:51;;;;;;;5.18;0.82;;;9.40;99.90;;;;;;4995023;28;20041;-77
2023/12/10 08:02:16;;;;;;;7.50;1.48;;;9.60;99.90;;;;;;5011902;28;20128;-77
2023/12/10 08:04:42;;;;;;;6.57;1.10;;;9.40;99.90;;;;;;5011746;28;20556;-77
2023/12/10 08:07:08;;;;;;;6.93;1.83;;;9.60;99.90;;;;;;5011951;28;20580;-75
2023/12/10 08:09:34;;;;;;;5.50;0.90;;;9.60;99.90;;;;;;5011582;28;20038;-75
2023/12/10 08:12:00;;;;;;;7.78;1.02;;;9.40;99.90;;;;;;5011466;28;20045;-77
2023/12/10 08:14:27;;;;;;;11.45;2.22;;;9.40;99.90;;;;;;4995330;28;20050;-75
2023/12/10 08:16:53;;;;;;;9.75;2.25;;;9.50;99.90;;;;;;5011390;28;20064;-76
2023/12/10 08:19:19;;;;;;;8.80;2.45;;;9.40;99.90;;;;;;5011344;28;20095;-76
2023/12/10 08:21:44;;;;;;;11.77;1.90;;;9.40;99.90;;;;;;5011288;28;20077;-76
2023/12/10 08:24:10;;;;;;;10.63;2.15;;;9.60;99.90;;;;;;5011402;28;20103;-76
2023/12/10 08:26:36;;;;;;;10.75;1.80;;;9.40;99.90;;;;;;5011258;28;20445;-77
2023/12/10 08:29:02;;;;;;;8.85;1.40;;;9.60;99.90;;;;;;4994642;28;20390;-75
2023/12/10 08:31:27;;;;;;;5.40;1.23;;;9.60;99.90;;;;;;5011543;28;20104;-75
2023/12/10 08:33:53;;;;;;;7.43;1.20;;;9.60;99.90;;;;;;5011454;28;20034;-78
2023/12/10 08:36:19;;;;;;;4.95;1.08;;;9.60;99.90;;;;;;4995368;28;20045;-75
2023/12/10 08:38:44;;;;;;;4.82;1.10;;;9.50;99.90;;;;;;5011328;28;20038;-75
2023/12/10 08:41:10;;;;;;;4.00;1.20;;;9.70;99.90;;;;;;5011071;28;20042;-76
2023/12/10 08:43:37;;;;;;;5.32;1.25;;;9.70;99.90;;;;;;5011109;28;20034;-76
2023/12/10 08:46:03;;;;;;;9.60;1.60;;;9.70;99.90;;;;;;5010707;28;20092;-75
2023/12/10 08:48:30;;;;;;;10.27;2.78;;;9.50;99.90;;;;;;5010937;28;20045;-76
2023/12/10 08:50:55;;;;;;;14.55;2.00;;;9.70;99.90;;;;;;5000493;28;20117;-75
2023/12/10 08:53:21;;;;;;;10.48;2.22;;;9.50;99.90;;;;;;4989571;28;20153;-75
2023/12/10 08:55:48;;;;;;;7.40;1.77;;;9.60;99.90;;;;;;4987213;28;20046;-75
2023/12/10 08:58:14;;;;;;;9.90;1.70;;;9.60;99.90;;;;;;4982528;28;20091;-76
2023/12/10 09:00:40;;;;;;;5.22;1.70;;;9.50;99.90;;;;;;4990677;28;20498;-76
2023/12/10 09:03:05;;;;;;;14.07;1.80;;;9.50;99.90;;;;;;4990196;28;20096;-76
2023/12/10 09:05:31;;;;;;;14.30;2.00;;;9.40;99.90;;;;;;4991276;28;20042;-76
2023/12/10 09:07:57;;;;;;;17.38;3.15;;;9.60;99.90;;;;;;4992433;28;20034;-75
2023/12/10 09:10:23;;;;;;;15.90;2.88;;;9.60;99.90;;;;;;4992302;28;20050;-76
2023/12/10 09:12:49;;;;;;;15.68;3.28;;;9.50;99.90;;;;;;4987894;28;20034;-75
2023/12/10 09:15:14;;;;;;;11.70;3.13;;;9.50;99.90;;;;;;4982686;28;20128;-76
2023/12/10 09:17:40;;;;;;;16.25;4.28;;;9.60;99.90;;;;;;4990632;28;20417;-75
2023/12/10 09:20:07;;;;;;;23.75;4.90;;;9.60;99.90;;;;;;4991590;28;20042;-76
2023/12/10 09:22:33;;;;;;;18.80;3.38;;;9.50;99.90;;;;;;4989407;28;20042;-75
2023/12/10 09:24:58;;;;;;;19.60;3.85;;;9.50;99.90;;;;;;4988223;28;20070;-76
2023/12/10 09:27:24;;;;;;;23.83;4.78;;;9.60;99.90;;;;;;4997610;28;20139;-75
2023/12/10 09:29:50;;;;;;;22.08;3.78;;;9.50;99.90;;;;;;4991347;28;20038;-75
2023/12/10 09:32:16;;;;;;;26.05;3.78;;;9.60;99.90;;;;;;4990962;28;20560;-75
2023/12/10 09:34:43;;;;;;;13.32;2.70;;;9.50;99.90;;;;;;4991484;28;20042;-75
2023/12/10 09:37:11;;;;;;;15.30;3.78;;;9.50;99.90;;;;;;4987936;28;20042;-75
2023/12/10 09:39:36;;;;;;;14.23;3.38;;;9.50;99.90;;;;;;4986307;28;20061;-76
2023/12/10 09:42:03;;;;;;;18.75;3.20;;;9.60;99.90;;;;;;4990776;28;20034;-76
2023/12/10 09:44:29;;;;;;;17.08;2.97;;;9.40;99.90;;;;;;4990728;28;20046;-75
2023/12/10 09:46:54;;;;;;;12.25;2.65;;;9.50;99.90;;;;;;4990898;28;20092;-75
2023/12/10 09:49:22;;;;;;;13.38;2.42;;;9.60;99.90;;;;;;4988119;28;20089;-75
2023/12/10 09:51:48;;;;;;;14.38;3.40;;;9.50;99.90;;;;;;4975722;28;20402;-76
2023/12/10 09:54:13;;;;;;;19.73;3.72;;;9.60;99.90;;;;;;4987577;28;20058;-76
2023/12/10 09:56:39;;;;;;;20.02;2.88;;;9.50;99.90;;;;;;4986541;28;20132;-75
2023/12/10 09:59:06;;;;;;;13.57;4.32;;;9.50;99.90;;;;;;4988143;28;20053;-74
2023/12/10 10:01:31;;;;;;;14.48;3.00;;;9.50;99.90;;;;;;4986330;28;20046;-74
2023/12/10 10:03:58;;;;;;;20.27;3.55;;;9.60;99.90;;;;;;4987527;28;20039;-75
2023/12/10 10:06:24;;;;;;;15.57;3.00;;;9.50;99.90;;;;;;4981890;28;20047;-75
2023/12/10 10:08:49;;;;;;;17.58;3.63;;;9.40;99.90;;;;;;4990077;28;20049;-75
2023/12/10 10:11:16;;;;;;;19.85;3.65;;;9.40;99.90;;;;;;4987361;28;20062;-75
2023/12/10 10:13:54;;;;;;;11.90;2.78;;;9.50;99.90;;;;;;4987465;28;20042;-76
2023/12/10 10:16:20;;;;;;;11.68;3.05;;;9.50;99.90;;;;;;4985774;28;20066;-75
2023/12/10 10:18:47;;;;;;;18.95;3.97;;;9.60;99.90;;;;;;4986300;28;20529;-75
2023/12/10 10:21:13;;;;;;;14.88;3.97;;;9.50;99.90;;;;;;4993929;28;20049;-75
2023/12/10 10:23:38;;;;;;;18.25;2.90;;;9.40;99.90;;;;;;4995267;28;20413;-76
2023/12/10 10:26:04;;;;;;;21.20;4.18;;;9.50;99.90;;;;;;4989559;28;20057;-76
2023/12/10 10:28:30;;;;;;;16.92;2.78;;;9.40;99.90;;;;;;4993201;28;20053;-76
2023/12/10 10:30:59;;;;;;;14.68;2.70;;;9.40;99.90;;;;;;4973073;28;20031;-76
2023/12/10 10:33:25;;;;;;;19.42;5.13;;;9.40;99.90;;;;;;4994268;28;20129;-76
2023/12/10 10:35:54;;;;;;;22.15;3.00;;;9.40;99.90;;;;;;4977359;28;20570;-75
2023/12/10 10:38:23;;;;;;;16.63;5.10;;;9.40;99.90;;;;;;4994398;28;20080;-75
2023/12/10 10:40:49;;;;;;;14.55;4.75;;;9.60;99.90;;;;;;4994716;28;20076;-75
2023/12/10 10:43:15;;;;;;;13.82;3.33;;;9.50;99.90;;;;;;4993799;28;20085;-75
2023/12/10 10:45:41;;;;;;;24.20;4.65;;;9.50;99.90;;;;;;4995255;28;20418;-75
2023/12/10 10:48:08;;;;;;;22.00;4.05;;;9.40;99.90;;;;;;4993414;28;20045;-76
2023/12/10 10:50:37;;;;;;;19.35;4.55;;;9.50;99.90;;;;;;4992191;28;20439;-75
2023/12/10 10:53:04;;;;;;;21.80;4.57;;;9.40;99.90;;;;;;4990382;28;20495;-76
2023/12/10 10:55:31;;;;;;;24.13;5.43;;;9.60;99.90;;;;;;4993311;28;20509;-75
2023/12/10 10:57:57;;;;;;;24.38;4.63;;;9.50;99.90;;;;;;4993954;28;20050;-77
2023/12/10 11:00:23;;;;;;;22.67;4.75;;;9.60;99.90;;;;;;4994727;28;20042;-77
2023/12/10 11:02:53;;;;;;;27.40;5.53;;;9.50;99.90;;;;;;4994595;28;20046;-76
2023/12/10 11:05:35;;;;;;;26.63;7.70;;;9.60;99.90;;;;;;4974252;28;20422;-74
2023/12/10 11:08:03;;;;;;;33.00;5.20;;;9.60;99.90;;;;;;4977232;28;20117;-75
2023/12/10 11:10:29;;;;;;;38.65;7.78;;;9.50;99.90;;;;;;4969702;28;20038;-75
2023/12/10 11:12:57;;;;;;;20.58;4.68;;;9.50;99.90;;;;;;4988656;28;20093;-76
2023/12/10 11:15:30;;;;;;;27.05;6.07;;;9.60;99.90;;;;;;4987929;28;20053;-77
2023/12/10 11:17:58;;;;;;;27.58;6.88;;;9.60;99.90;;;;;;4976459;28;20074;-76
2023/12/10 11:20:47;;;;;;;34.15;6.40;;;9.60;99.90;;;;;;4992871;28;20050;-76
2023/12/10 11:23:17;;;;;;;22.15;4.47;;;9.60;99.90;;;;;;4992939;28;20052;-77
2023/12/10 11:25:44;;;;;;;26.83;6.38;;;9.60;99.90;;;;;;4993018;28;20082;-76
2023/12/10 11:28:18;;;;;;;16.67;4.97;;;9.60;99.90;;;;;;4993980;28;20045;-76
2023/12/10 11:30:45;;;;;;;24.27;6.13;;;9.50;99.90;;;;;;4994891;28;20121;-77
2023/12/10 11:33:13;;;;;;;24.27;4.97;;;9.60;99.90;;;;;;4989085;28;20045;-77
2023/12/10 11:35:39;;;;;;;27.38;4.70;;;9.50;99.90;;;;;;4992926;28;20119;-76
2023/12/10 11:38:05;;;;;;;25.17;5.70;;;9.50;99.90;;;;;;4976126;28;20099;-77
2023/12/10 11:40:32;;;;;;;26.13;5.35;;;9.60;99.90;;;;;;4992242;28;20043;-77
2023/12/10 11:43:07;;;;;;;15.68;4.95;;;9.50;99.90;;;;;;4991468;28;20085;-76
2023/12/10 11:45:33;;;;;;;30.83;5.95;;;9.60;99.90;;;;;;4993755;28;20486;-75
2023/12/10 11:48:01;;;;;;;27.95;4.68;;;9.60;99.90;;;;;;4992074;28;20033;-76
2023/12/10 11:50:27;;;;;;;28.58;8.00;;;9.70;99.90;;;;;;4992308;28;20041;-76
2023/12/10 11:52:53;;;;;;;31.05;7.10;;;9.70;99.90;;;;;;4992393;28;20108;-75
2023/12/10 11:55:19;;;;;;;30.05;7.47;;;9.60;99.90;;;;;;4989229;28;20511;-75
2023/12/10 11:57:44;;;;;;;25.73;4.80;;;9.70;99.90;;;;;;4976687;28;20242;-76
2023/12/10 12:00:11;;;;;;;32.53;9.52;;;9.60;99.90;;;;;;4991326;28;20460;-76
2023/12/10 12:02:45;;;;;;;37.85;7.65;;;9.60;99.90;;;;;;4992184;28;20030;-77
2023/12/10 12:05:13;;;;;;;25.90;6.45;;;9.70;99.90;;;;;;4991792;28;20514;-76
2023/12/10 12:07:40;;;;;;;36.03;6.57;;;9.60;99.90;;;;;;4975907;28;20040;-76
2023/12/10 12:10:07;;;;;;;29.27;6.78;;;9.70;99.90;;;;;;4992196;28;20061;-76
2023/12/10 12:12:38;;;;;;;34.08;6.47;;;9.70;99.90;;;;;;4978486;28;20069;-77
2023/12/10 12:15:04;;;;;;;36.40;6.13;;;9.70;99.90;;;;;;4994387;28;20038;-77
2023/12/10 12:17:30;;;;;;;36.80;7.88;;;9.70;99.90;;;;;;4992905;28;20608;-77
2023/12/10 12:19:55;;;;;;;28.33;6.68;;;9.70;99.90;;;;;;4985248;28;20124;-76
2023/12/10 12:22:21;;;;;;;24.77;6.57;;;9.70;99.90;;;;;;4982587;28;20414;-76
2023/12/10 12:24:46;;;;;;;29.15;6.45;;;9.70;99.90;;;;;;4981877;28;20104;-77
2023/12/10 12:27:12;;;;;;;29.00;5.18;;;9.60;99.90;;;;;;4989374;28;20402;-76
2023/12/10 12:29:38;;;;;;;35.47;7.75;;;9.60;99.90;;;;;;4994402;28;20048;-77
2023/12/10 12:32:05;;;;;;;35.67;6.47;;;9.60;99.90;;;;;;4994624;28;20038;-77
2023/12/10 12:34:31;;;;;;;23.92;5.53;;;9.60;99.90;;;;;;4991936;28;20042;-76
2023/12/10 12:36:57;;;;;;;25.65;7.13;;;9.60;99.90;;;;;;4991185;28;20093;-76
2023/12/10 12:39:24;;;;;;;23.38;5.30;;;9.60;99.90;;;;;;4991963;28;20042;-77
2023/12/10 12:41:50;;;;;;;23.08;5.80;;;9.50;99.90;;;;;;4975250;28;20124;-76
2023/12/10 12:44:16;;;;;;;20.23;5.00;;;9.50;99.90;;;;;;4991496;28;20522;-76